Pagrindinis puslapis
METAR-TAF:

METAR-TAF

Oro uostai :

Sharjah, Jungtiniai Arabų Emyratai

platuma: 25-20N, ilguma: 055-31E, Aukštis: 35 m

Dabartinis oras

Ataskaita buvo paskelbta 37 minutes, ne 06:00 UTC
Vėjas 2 kt nuo kintamojo kryptimis
Temperatūra 40°C
Drėgmė 19%
Slėgis 1003 hPa
Matomumas 10 km arba daugiau
nėra debesų žemiau 1500 m ir nėra kamuolinių lietaus debesų

METAR: OMSJ 260600Z VRB02KT CAVOK 40/12 Q1003 NOSIG

Laikas: 10:37 (06:37 UTC)

Prognozė

Ataskaita buvo paskelbta 1 valandą ir 37 minutes, ne 05:00 UTC
Prognozė galioja nuo 26 metu 06 UTC su 27 metu 12 UTC
Vėjas 5 kt iš Pietų
Matomumas 10 km arba daugiau
nėra debesų žemiau 1500 m ir nėra kamuolinių lietaus debesų
Tapsmas
nuo 26 metu 07 UTC su 26 metu 09 UTC
Vėjas 12 kt iš Šiaurės/Šiaurės Vakarų
Tapsmas
nuo 26 metu 16 UTC su 26 metu 18 UTC
Vėjas 5 kt iš Pietų/Pietryčių
Tapsmas
nuo 27 metu 07 UTC su 27 metu 09 UTC
Vėjas 12 kt iš Vakarų/Šiaurės Vakarų

TAF: OMSJ 260500Z 2606/2712 19005KT CAVOK BECMG 2607/2609 33012KT BECMG 2616/2618 15005KT BECMG 2707/2709 29012KT

Orai ataskaitas ir orų prognozės (METAR, TAF).

turimą stotys yra geltonos ir raudonos taškus žemėlapyje.

Perkelti pele per norėdami pamatyti stoties vardą.

Tada spustelėkite, norėdami matyti oro stebėjimo ir prognozės.

Norėdami pakeisti žemėlapį: spustelėkite ant žalios mygtukų su juodo kryžiaus žemyn,; žalią mygtuką su brūkšneliu, jei norite nutolinti; arba žalių rodyklių gretimoms žemėlapius.


METAR-TAF: